Aérodrome :
LOGIN :

S'inscrire | Disclaimer

   EN    FR    IT 

 










Légende :    VFR   VFR Marginal   IFR   IFR Intensif   IFR Très Intensif
Visi : 
Plafond : 
>= 8 km
>= 3000ft
5 à 8 km
1000 à 3000 ft
1500m à 5 km
500 à 1000 ft
800 à 1500m
200 à 500 ft
< 800m
< 200 ft
Symboles :   Orages  Brouillard  Fortes neiges  Fortes précipitations  Vent > 20 kt
SIGMETs :   Divers  Orages  Givrage  Turbulence  Onde Orograph.  Cendres Volcan.






- Altitude de l'aérodrome : 266 ft
- Code IATA : NCL


EGNT - Newcastle

DERNIER METAR :
  • 012050Z 26012KT 9999 SCT035 07/03 Q1016

METARs EXPIRÉS :
  • 011950Z 28012KT CAVOK 07/02 Q1016
  • 011920Z 28013KT CAVOK 07/02 Q1016
  • 011850Z 28017KT CAVOK 08/02 Q1016
  • 011820Z 27015KT CAVOK 09/02 Q1016

TAF TAF EGNT
Valide du 01 à 18h jusqu'au 02 à 00h UTC


011753Z 0118/0124 27010KT 9999 SCT040
PROB30
TEMPO 0121/0124 BKN014
ATIS : +44 191 214 3400



MET'MAP, la Météo Aéronautique d'un coup d'oeil ! - Copyright ORBIFLY Décembre 2007 - Disclaimer

ORBIFLY MET'MAP TEAM :

Programmation & Développement : Alexandra Zaïnal
Sur une idée originale de : Baudouin d'Aumeries
Assistance à la programmation : Marc-Olivier Méhu
Soutien technique & logistique : Manuel Goepfert

Contact : metmap@orbifly.com




SOURCES & CREDITS :

   NOAA